Time;durP1;ratioP1;P1;durP2;ratioP2;P2;SDS_P1;SDS_P2;PMS_P1;PMS_P2;Temp;Humidity;BMP_temperature;BMP_pressure;BME280_temperature;BME280_humidity;BME280_pressure;Samples;Min_cycle;Max_cycle;Signal;HPM_P1;HPM_P2
2022/09/12 00:02:01;;;;;;;7.32;1.30;;;;;;;20.79;100.00;151263.47;5092319;28;20195;-62
2022/09/12 00:04:28;;;;;;;2.72;1.48;;;;;;;20.86;100.00;151281.28;5092007;28;20188;-62
2022/09/12 00:06:55;;;;;;;1.83;1.20;;;;;;;20.74;100.00;151250.72;5091731;28;20243;-62
2022/09/12 00:09:22;;;;;;;1.02;0.98;;;;;;;20.81;100.00;151269.81;5092104;28;20682;-62
2022/09/12 00:11:50;;;;;;;2.53;1.00;;;;;;;20.79;100.00;151264.69;5091648;28;20220;-63
2022/09/12 00:14:19;;;;;;;0.88;0.85;;;;;;;20.85;100.00;151278.72;5090460;28;20242;-63
2022/09/12 00:16:46;;;;;;;3.42;0.90;;;;;;;20.81;100.00;151269.81;5091659;28;20570;-63
2022/09/12 00:19:13;;;;;;;2.13;1.20;;;;;;;20.79;100.00;151263.47;5091479;28;20185;-63
2022/09/12 00:21:41;;;;;;;1.08;0.88;;;;;;;20.66;100.00;151230.34;5091481;28;20188;-62
2022/09/12 00:24:08;;;;;;;2.00;1.10;;;;;;;20.67;100.00;151232.84;5092123;28;20185;-63
2022/09/12 00:26:35;;;;;;;6.70;0.93;;;;;;;20.62;100.00;151220.16;5091399;28;20212;-62
2022/09/12 00:29:04;;;;;;;3.78;1.05;;;;;;;20.43;100.00;112040.66;5090503;28;20199;-62
2022/09/12 00:31:31;;;;;;;0.80;0.80;;;;;;;20.23;100.00;83609.28;5090712;28;20191;-62
2022/09/12 00:34:00;;;;;;;2.10;1.00;;;;;;;20.19;100.00;51157.66;5095176;28;20211;-62
2022/09/12 00:36:28;;;;;;;2.37;1.33;;;;;;;20.05;100.00;44892.22;5095238;28;20188;-62
2022/09/12 00:38:55;;;;;;;2.78;1.30;;;;;;;20.03;100.00;39633.38;5095282;28;20184;-62
2022/09/12 00:41:25;;;;;;;1.50;1.40;;;;;;;19.92;100.00;24560.63;5095262;28;20635;-62
2022/09/12 00:43:54;;;;;;;1.50;1.40;;;;;;;19.82;100.00;15095.16;5095259;28;20550;-62
2022/09/12 00:46:39;;;;;;;1.93;1.47;;;;;;;19.77;100.00;1440.19;5095074;28;20208;-62
2022/09/12 00:49:14;;;;;;;1.53;1.43;;;;;;;19.40;100.00;-3746.09;5094887;28;20184;-62
2022/09/12 00:51:44;;;;;;;1.80;1.73;;;;;;;19.49;100.00;-7305.44;5094964;28;20183;-62
2022/09/12 00:54:17;;;;;;;1.77;1.67;;;;;;;19.44;100.00;-12475.06;5094806;28;20195;-62
2022/09/12 00:56:45;;;;;;;1.70;1.60;;;;;;;19.43;100.00;-14088.81;5094966;28;20631;-61
2022/09/12 00:59:15;;;;;;;2.03;1.93;;;;;;;19.29;100.00;-13118.38;5094905;28;20550;-61
2022/09/12 01:01:46;;;;;;;1.83;1.73;;;;;;;19.40;100.00;-13442.84;5095245;28;20619;-62
2022/09/12 01:04:13;;;;;;;1.93;1.83;;;;;;;19.30;100.00;-16666.56;5094768;28;20192;-62
2022/09/12 01:06:42;;;;;;;5.97;2.43;;;;;;;19.05;100.00;-17627.84;5094641;28;20208;-62
2022/09/12 01:09:12;;;;;;;3.77;2.37;;;;;;;18.85;100.00;-18269.19;5094405;28;20184;-63
2022/09/12 01:11:40;;;;;;;2.27;2.07;;;;;;;18.67;100.00;-18265.00;5094311;28;20190;-62
2022/09/12 01:14:07;;;;;;;2.80;2.00;;;;;;;18.63;100.00;-18264.03;5094649;28;20210;-62
2022/09/12 01:16:36;;;;;;;2.90;2.13;;;;;;;18.53;100.00;-18261.78;5094265;28;20219;-62
2022/09/12 01:19:25;;;;;;;1.97;1.87;;;;;;;18.52;100.00;-18261.53;5094620;28;20188;-61
2022/09/12 01:22:06;;;;;;;2.10;2.00;;;;;;;18.62;100.00;-18263.81;5094300;28;20187;-61
2022/09/12 01:25:00;;;;;;;2.97;2.60;;;;;;;18.54;100.00;-18262.00;5094126;28;20191;-61
2022/09/12 01:27:47;;;;;;;2.20;2.10;;;;;;;18.46;100.00;-18260.09;5092558;28;20224;-62
2022/09/12 01:30:25;;;;;;;3.17;1.80;;;;;;;18.55;100.00;-18262.13;5093318;28;20613;-62
2022/09/12 01:33:17;;;;;;;2.17;2.00;;;;;;;18.51;100.00;-18261.28;5094516;28;20190;-62
2022/09/12 01:35:52;;;;;;;2.40;2.20;;;;;;;18.50;100.00;-18260.94;5094213;28;20532;-61
2022/09/12 01:38:29;;;;;;;2.40;2.20;;;;;;;18.51;100.00;-18261.28;5094069;28;20184;-61
2022/09/12 01:41:03;;;;;;;2.10;2.00;;;;;;;18.58;100.00;-18262.97;5093935;28;20188;-62
2022/09/12 01:43:36;;;;;;;2.10;2.00;;;;;;;18.54;100.00;-18262.00;5093622;28;20197;-61
2022/09/12 01:46:11;;;;;;;2.53;1.90;;;;;;;18.54;100.00;-18262.00;5093755;28;20205;-62
2022/09/12 01:48:44;;;;;;;2.47;2.30;;;;;;;18.68;100.00;-18265.22;5093922;28;20333;-61
2022/09/12 01:51:18;;;;;;;2.23;2.03;;;;;;;18.62;100.00;-18263.81;5093975;28;20184;-62
2022/09/12 01:53:51;;;;;;;2.23;2.13;;;;;;;18.61;100.00;-18263.56;5093907;28;20290;-61
2022/09/12 01:56:22;;;;;;;2.37;2.27;;;;;;;18.58;100.00;-18262.84;5093907;28;20619;-63
2022/09/12 01:58:53;;;;;;;3.00;2.10;;;;;;;18.63;100.00;-18264.16;5093856;28;20566;-62
2022/09/12 02:01:26;;;;;;;2.40;2.27;;;;;;;18.63;100.00;-18264.16;5093956;28;20199;-62
2022/09/12 02:04:04;;;;;;;2.10;2.00;;;;;;;18.73;100.00;-18266.31;5093973;28;20191;-62
2022/09/12 02:06:36;;;;;;;2.30;2.20;;;;;;;18.66;100.00;-18264.75;5093220;28;20183;-62
2022/09/12 02:09:09;;;;;;;2.57;2.43;;;;;;;18.69;100.00;-18265.59;5093423;28;20191;-61
2022/09/12 02:11:42;;;;;;;2.37;2.27;;;;;;;18.73;100.00;-18266.44;5093206;28;20184;-62
2022/09/12 02:14:14;;;;;;;2.30;2.20;;;;;;;18.69;100.00;-18265.59;5093520;28;20184;-61
2022/09/12 02:16:47;;;;;;;2.27;1.93;;;;;;;18.58;100.00;-18262.84;5093362;28;20237;-62
2022/09/12 02:19:17;;;;;;;1.80;1.70;;;;;;;18.65;100.00;-18264.50;5093613;28;20234;-62
2022/09/12 02:21:50;;;;;;;5.90;2.47;;;;;;;18.60;100.00;-18263.44;5093106;28;20279;-62
2022/09/12 02:24:20;;;;;;;3.30;3.00;;;;;;;18.47;100.00;-18260.31;5093171;28;20199;-62
2022/09/12 02:26:50;;;;;;;3.20;2.67;;;;;;;18.29;100.00;-18256.03;5092891;28;20242;-62
2022/09/12 02:29:17;;;;;;;3.73;3.53;;;;;;;18.29;100.00;-18256.03;5093373;28;20574;-62
2022/09/12 02:31:48;;;;;;;5.33;5.03;;;;;;;18.34;100.00;-18257.09;5093248;28;20572;-62
2022/09/12 02:34:33;;;;;;;6.57;5.97;;;;;;;18.39;100.00;-18258.28;5092859;28;20184;-62
2022/09/12 02:37:07;;;;;;;6.13;5.73;;;;;;;18.37;100.00;-18257.94;5093155;28;20245;-62
2022/09/12 02:39:35;;;;;;;6.40;6.07;;;;;;;18.32;100.00;-18256.75;5092788;28;20242;-61
2022/09/12 02:42:03;;;;;;;6.27;5.70;;;;;;;18.34;100.00;-18257.09;5092753;28;20188;-62
2022/09/12 02:44:32;;;;;;;6.30;6.00;;;;;;;18.37;100.00;-18257.94;5092744;28;20224;-61
2022/09/12 02:47:04;;;;;;;6.87;5.60;;;;;;;18.42;100.00;-18259.13;5092975;28;20226;-61
2022/09/12 02:49:31;;;;;;;6.17;5.77;;;;;;;18.37;100.00;-18257.94;5092738;28;20184;-62
2022/09/12 02:51:59;;;;;;;5.33;5.00;;;;;;;18.35;100.00;-18257.47;5092888;28;20532;-61
2022/09/12 02:54:26;;;;;;;5.50;5.10;;;;;;;18.42;100.00;-18259.13;5092091;28;20187;-62
2022/09/12 02:56:53;;;;;;;4.73;4.43;;;;;;;18.40;100.00;-18258.66;5092159;28;20330;-62
2022/09/12 02:59:22;;;;;;;5.10;4.90;;;;;;;18.26;100.00;-18255.44;5092360;28;20183;-62
2022/09/12 03:02:13;;;;;;;6.03;5.73;;;;;;;18.42;100.00;-18259.13;5092978;28;20265;-62
2022/09/12 03:05:18;;;;;;;6.27;5.13;;;;;;;18.63;100.00;-18264.03;5092213;28;20187;-63
2022/09/12 03:08:06;;;;;;;6.33;6.00;;;;;;;18.74;100.00;-18266.53;5092263;28;20211;-62
2022/09/12 03:10:40;;;;;;;7.00;6.60;;;;;;;18.69;100.00;-18265.59;5092263;28;20198;-62
2022/09/12 03:13:20;;;;;;;7.57;7.07;;;;;;;18.74;100.00;-18266.53;5092244;28;20190;-62
2022/09/12 03:16:01;;;;;;;8.43;7.93;;;;;;;18.42;100.00;-18259.00;5092178;28;20222;-61
2022/09/12 03:18:43;;;;;;;10.13;9.63;;;;;;;18.52;100.00;-18261.53;5092029;28;20231;-61
2022/09/12 03:21:14;;;;;;;11.17;10.67;;;;;;;18.57;100.00;-18262.72;5092653;28;20237;-62
2022/09/12 03:23:51;;;;;;;11.73;10.93;;;;;;;18.59;100.00;-18263.19;5092463;28;20557;-61
2022/09/12 03:26:31;;;;;;;13.87;12.77;;;;;;;18.60;100.00;-18263.44;5092053;28;20188;-61
2022/09/12 03:29:00;;;;;;;16.97;15.40;;;;;;;18.64;100.00;-18264.41;5092393;28;20670;-61
2022/09/12 03:31:27;;;;;;;18.47;16.40;;;;;;;18.67;100.00;-18265.13;5092009;28;20195;-61
2022/09/12 03:33:56;;;;;;;17.83;16.07;;;;;;;18.57;100.00;-18262.72;5092252;28;20223;-61
2022/09/12 03:36:25;;;;;;;25.17;17.00;;;;;;;18.55;100.00;-18262.25;5091958;28;20188;-61
2022/09/12 03:38:52;;;;;;;19.70;17.70;;;;;;;18.50;100.00;-18261.03;5092091;28;20176;-62
2022/09/12 03:41:20;;;;;;;20.43;16.57;;;;;;;18.45;100.00;-18259.84;5092280;28;20539;-61
2022/09/12 03:43:47;;;;;;;18.73;16.73;;;;;;;18.35;100.00;-18257.34;5091984;28;20184;-62
2022/09/12 03:46:14;;;;;;;17.50;15.20;;;;;;;18.36;100.00;-18257.59;5091895;28;20194;-62
2022/09/12 03:48:42;;;;;;;15.83;14.50;;;;;;;18.29;100.00;-18255.91;5092099;28;20582;-62
2022/09/12 03:51:11;;;;;;;15.60;13.73;;;;;;;18.32;100.00;-18256.75;5092558;28;20195;-62
2022/09/12 03:53:38;;;;;;;12.70;11.57;;;;;;;18.25;100.00;-18255.06;5091917;28;20215;-62
2022/09/12 03:56:07;;;;;;;7.73;6.70;;;;;;;18.37;100.00;-18257.81;5091938;28;20237;-62
2022/09/12 03:58:35;;;;;;;5.17;3.37;;;;;;;18.30;100.00;-18256.16;5091721;28;20245;-62
2022/09/12 04:01:10;;;;;;;2.17;1.57;;;;;;;18.48;100.00;-18260.44;5091968;28;20196;-61
2022/09/12 04:03:38;;;;;;;1.50;1.40;;;;;;;18.50;100.00;-18260.94;5092195;28;20220;-62
2022/09/12 04:06:06;;;;;;;1.83;1.77;;;;;;;18.55;100.00;-18262.13;5090492;28;20188;-61
2022/09/12 04:08:35;;;;;;;1.83;1.80;;;;;;;18.68;100.00;-18265.34;5094783;28;20204;-62
2022/09/12 04:11:03;;;;;;;3.23;1.90;;;;;;;18.69;100.00;-18265.47;5095582;28;20186;-62
2022/09/12 04:13:30;;;;;;;2.33;2.23;;;;;;;18.63;100.00;-18264.16;5096048;28;20188;-63
2022/09/12 04:15:58;;;;;;;2.20;2.10;;;;;;;18.80;100.00;-18267.97;5095653;28;20187;-62
2022/09/12 04:18:25;;;;;;;2.47;2.27;;;;;;;18.84;100.00;-18268.94;5095539;28;20254;-62
2022/09/12 04:20:52;;;;;;;7.33;3.20;;;;;;;18.82;100.00;-18268.47;5095794;28;20191;-61
2022/09/12 04:23:19;;;;;;;5.00;2.90;;;;;;;18.81;100.00;-18268.34;5095762;28;20180;-62
2022/09/12 04:25:55;;;;;;;4.93;3.43;;;;;;;18.68;100.00;-18265.22;5095100;28;20219;-63
2022/09/12 04:28:25;;;;;;;4.03;3.13;;;;;;;18.94;100.00;-18271.31;5095372;28;20680;-61
2022/09/12 04:30:52;;;;;;;5.83;2.70;;;;;;;18.93;100.00;-18269.31;5095140;28;20184;-61
2022/09/12 04:33:19;;;;;;;4.67;1.93;;;;;;;19.02;100.00;-15049.16;5095042;28;20185;-64
2022/09/12 04:35:46;;;;;;;5.50;2.00;;;;;;;19.05;100.00;-13114.63;5095045;28;20194;-61
2022/09/12 04:38:13;;;;;;;3.80;2.27;;;;;;;19.02;100.00;-13759.34;5095064;28;20199;-63
2022/09/12 04:40:41;;;;;;;3.17;2.10;;;;;;;19.01;100.00;-14404.06;5095264;28;20712;-62
2022/09/12 04:43:09;;;;;;;3.17;1.80;;;;;;;19.07;100.00;-13437.53;5094804;28;20220;-62
2022/09/12 04:45:36;;;;;;;1.70;1.33;;;;;;;18.76;100.00;-11497.56;5094994;28;20188;-63
2022/09/12 04:48:03;;;;;;;1.23;1.23;;;;;;;18.98;100.00;-11823.06;5094852;28;20208;-62
2022/09/12 04:50:30;;;;;;;1.83;1.43;;;;;;;18.99;100.00;-13436.25;5094741;28;20191;-63
2022/09/12 04:52:57;;;;;;;1.10;1.10;;;;;;;19.00;100.00;-14726.41;5094964;28;20224;-62
2022/09/12 04:55:25;;;;;;;1.27;1.27;;;;;;;18.90;100.00;-17946.47;5095007;28;20546;-62
2022/09/12 04:57:52;;;;;;;2.40;1.40;;;;;;;18.92;100.00;-18270.84;5094827;28;20679;-62
2022/09/12 05:00:20;;;;;;;1.47;1.40;;;;;;;18.77;100.00;-18267.38;5094938;28;20202;-62
2022/09/12 05:02:47;;;;;;;1.63;1.10;;;;;;;18.79;100.00;-17622.00;5094438;28;20188;-62
2022/09/12 05:05:16;;;;;;;1.50;1.50;;;;;;;18.68;100.00;-17619.59;5094926;28;20191;-62
2022/09/12 05:07:43;;;;;;;2.63;1.70;;;;;;;18.83;100.00;-17622.81;5093263;28;20212;-62
2022/09/12 05:10:11;;;;;;;1.70;1.60;;;;;;;18.92;100.00;-15047.19;5094481;28;20188;-62
2022/09/12 05:12:38;;;;;;;3.57;1.70;;;;;;;19.00;100.00;-12468.72;5094664;28;20195;-61
2022/09/12 05:15:06;;;;;;;3.27;1.30;;;;;;;18.95;100.00;-8917.34;5094255;28;20223;-61
2022/09/12 05:17:34;;;;;;;2.70;1.63;;;;;;;19.20;100.00;-5363.59;5093808;28;20223;-61
2022/09/12 05:20:02;;;;;;;4.70;1.60;;;;;;;19.31;100.00;-6334.31;5094216;28;20198;-62
2022/09/12 05:22:29;;;;;;;4.80;1.83;;;;;;;19.50;100.00;-2126.97;5094298;28;20266;-62
2022/09/12 05:24:56;;;;;;;5.23;1.70;;;;;;;19.55;100.00;465.72;5094125;28;20200;-62
2022/09/12 05:27:23;;;;;;;8.30;2.20;;;;;;;19.67;100.00;2737.06;5094000;28;20188;-63
2022/09/12 05:29:51;;;;;;;5.83;2.53;;;;;;;19.83;100.00;7285.69;5093820;28;20298;-63
2022/09/12 05:32:18;;;;;;;4.93;2.00;;;;;;;19.87;100.00;7286.47;5093958;28;20280;-62
2022/09/12 05:34:46;;;;;;;15.93;2.93;;;;;;;20.18;100.00;15105.78;5093838;28;20275;-63
2022/09/12 05:37:13;;;;;;;7.67;2.17;;;;;;;20.31;100.00;20983.59;5092813;28;20597;-62
2022/09/12 05:39:40;;;;;;;3.73;2.40;;;;;;;21.38;100.00;40713.97;5093775;28;20275;-63
2022/09/12 05:42:08;;;;;;;4.50;2.00;;;;;;;22.46;100.00;128953.41;5093731;28;20192;-63
2022/09/12 05:44:35;;;;;;;3.67;2.20;;;;;;;23.01;100.00;151824.47;5093523;28;20199;-62
2022/09/12 05:47:02;;;;;;;4.75;1.83;;;;;;;23.27;100.00;151889.56;5093676;28;20184;-63
2022/09/12 05:49:29;;;;;;;6.13;1.90;;;;;;;23.46;100.00;151936.84;5093502;28;20250;-61
2022/09/12 05:51:57;;;;;;;4.22;1.60;;;;;;;24.49;100.00;152197.25;5093591;28;20211;-62
2022/09/12 05:54:25;;;;;;;3.92;1.48;;;;;;;24.55;100.00;152213.91;5093608;28;20554;-63
2022/09/12 05:56:52;;;;;;;4.15;3.15;;;;;;;25.04;100.00;152336.53;5093505;28;20221;-63
2022/09/12 05:59:22;;;;;;;3.30;1.98;;;;;;;25.52;100.00;152457.94;5093199;28;20187;-62
2022/09/12 06:01:49;;;;;;;2.42;1.42;;;;;;;25.37;100.00;152419.63;5093496;28;20547;-63
2022/09/12 06:04:17;;;;;;;1.38;0.90;;;;;;;24.91;100.00;152304.59;5093289;28;20187;-62
2022/09/12 06:06:45;;;;;;;1.33;1.23;;;;;;;24.57;100.00;152218.97;5093073;28;20283;-63
2022/09/12 06:09:14;;;;;;;2.22;1.25;;;;;;;24.40;100.00;152175.56;5093497;28;20211;-62
2022/09/12 06:11:41;;;;;;;3.67;1.23;;;;;;;24.32;100.00;152153.84;5093194;28;20266;-64
2022/09/12 06:14:10;;;;;;;2.85;1.20;;;;;;;24.23;100.00;152130.91;5093406;28;20184;-62
2022/09/12 06:16:37;;;;;;;3.55;1.40;;;;;;;24.52;100.00;152206.25;5093051;28;20223;-63
2022/09/12 06:19:06;;;;;;;2.55;1.20;;;;;;;24.50;100.00;152201.13;5093014;28;20185;-63
2022/09/12 06:21:37;;;;;;;5.05;1.02;;;;;;;24.52;100.00;152204.97;5092894;28;20204;-62
2022/09/12 06:24:06;;;;;;;1.33;1.20;;;;;;;24.67;100.00;152243.25;5093110;28;20180;-63
2022/09/12 06:26:36;;;;;;;1.30;1.17;;;;;;;24.79;100.00;152273.91;5092753;28;20212;-63
2022/09/12 06:29:04;;;;;;;1.10;1.00;;;;;;;25.10;100.00;152351.88;5092460;28;20315;-62
2022/09/12 06:31:33;;;;;;;2.47;1.42;;;;;;;25.42;100.00;152432.34;5092099;28;20329;-63
2022/09/12 06:34:02;;;;;;;1.98;0.85;;;;;;;25.88;100.00;152550.03;5092548;28;20188;-62
2022/09/12 06:36:31;;;;;;;3.17;1.20;;;;;;;26.39;100.00;152677.91;5092443;28;20186;-63
2022/09/12 06:39:00;;;;;;;1.38;1.27;;;;;;;27.15;100.00;152869.78;5092748;28;20190;-62
2022/09/12 06:41:28;;;;;;;7.45;2.25;;;;;;;27.77;100.00;153025.91;5092411;28;20180;-62
2022/09/12 06:43:57;;;;;;;1.23;0.90;;;;;;;28.14;100.00;153121.94;5092352;28;20647;-62
2022/09/12 06:46:24;;;;;;;1.77;1.10;;;;;;;28.20;100.00;153136.03;5092097;28;20274;-62
2022/09/12 06:48:59;;;;;;;2.25;1.30;;;;;;;28.64;100.00;153247.41;5092468;28;20210;-65
2022/09/12 06:51:27;;;;;;;1.38;1.13;;;;;;;28.56;100.00;153228.19;5092160;28;20184;-63
2022/09/12 06:53:55;;;;;;;0.88;0.88;;;;;;;28.65;100.00;153249.94;5092243;28;20265;-62
2022/09/12 06:56:24;;;;;;;3.75;1.10;;;;;;;28.42;100.00;153191.06;5091962;28;20294;-61
2022/09/12 06:58:55;;;;;;;1.10;1.00;;;;;;;28.24;100.00;153144.97;5092141;28;20555;-62
2022/09/12 07:01:26;;;;;;;3.22;1.10;;;;;;;29.01;100.00;153342.22;5092328;28;20200;-62
2022/09/12 07:03:54;;;;;;;1.92;1.08;;;;;;;29.13;100.00;153370.38;5091916;28;20198;-62
2022/09/12 07:06:24;;;;;;;1.10;1.00;;;;;;;29.04;100.00;153349.88;5091836;28;20185;-63
2022/09/12 07:08:51;;;;;;;2.63;0.70;;;;;;;29.20;100.00;153389.59;5092026;28;20250;-65
2022/09/12 07:11:20;;;;;;;4.68;1.52;;;;;;;29.26;100.00;153403.69;5091996;28;20271;-63
2022/09/12 07:13:49;;;;;;;5.97;1.52;;;;;;;29.48;100.00;153461.41;5091627;28;20190;-63
2022/09/12 07:16:17;;;;;;;2.55;0.98;;;;;;;28.67;100.00;153255.09;5091689;28;20540;-63
2022/09/12 07:18:49;;;;;;;0.80;0.80;;;;;;;28.04;100.00;153096.31;5092007;28;20199;-62
2022/09/12 07:21:16;;;;;;;1.17;0.65;;;;;;;28.03;100.00;153092.47;5092148;28;20191;-63
2022/09/12 07:23:44;;;;;;;0.98;0.90;;;;;;;27.70;100.00;153009.28;5091845;28;20187;-62
2022/09/12 07:26:12;;;;;;;1.90;1.00;;;;;;;27.42;100.00;152938.84;5091678;28;20623;-62
2022/09/12 07:28:39;;;;;;;4.03;1.27;;;;;;;27.20;100.00;152882.56;5091839;28;20208;-62
2022/09/12 07:31:09;;;;;;;1.20;1.10;;;;;;;27.16;100.00;152872.31;5091613;28;20239;-63
2022/09/12 07:33:37;;;;;;;0.90;0.90;;;;;;;27.32;100.00;152913.28;5090244;28;20188;-62
2022/09/12 07:36:09;;;;;;;1.17;0.85;;;;;;;27.36;100.00;152922.22;5091590;28;20195;-62
2022/09/12 07:38:36;;;;;;;5.40;1.40;;;;;;;27.53;100.00;152967.06;5091852;28;20567;-61
2022/09/12 07:41:10;;;;;;;1.00;1.00;;;;;;;27.56;100.00;152973.44;5092242;28;20191;-58
2022/09/12 07:43:37;;;;;;;1.95;1.00;;;;;;;27.61;100.00;152987.53;5095465;28;20179;-61
2022/09/12 07:46:04;;;;;;;0.95;0.95;;;;;;;27.71;100.00;153013.09;5095916;28;20271;-62
2022/09/12 07:48:31;;;;;;;8.60;8.02;;;;;;;27.87;100.00;153051.50;5095315;28;20294;-64
2022/09/12 07:50:59;;;;;;;0.70;0.70;;;;;;;27.80;100.00;153033.56;5095450;28;20214;-64
2022/09/12 07:53:31;;;;;;;3.35;1.20;;;;;;;28.00;100.00;153084.78;5095199;28;20187;-65
2022/09/12 07:55:58;;;;;;;2.45;0.80;;;;;;;28.10;100.00;153110.41;5095134;28;20188;-64
2022/09/12 07:58:26;;;;;;;0.80;0.80;;;;;;;28.36;100.00;153175.69;5095077;28;20226;-63
2022/09/12 08:00:53;;;;;;;4.25;0.88;;;;;;;28.25;100.00;153148.84;5095434;28;20512;-62
2022/09/12 08:03:21;;;;;;;1.02;0.93;;;;;;;28.34;100.00;153171.88;5095151;28;20184;-62
2022/09/12 08:05:48;;;;;;;0.80;0.80;;;;;;;28.29;100.00;153157.78;5095123;28;20204;-63
2022/09/12 08:08:15;;;;;;;3.83;1.10;;;;;;;28.52;100.00;153217.94;5095299;28;20183;-62
2022/09/12 08:10:43;;;;;;;0.95;0.95;;;;;;;28.40;100.00;153185.94;5095127;28;20220;-63
2022/09/12 08:13:10;;;;;;;8.00;1.10;;;;;;;28.37;100.00;153178.25;5095242;28;20257;-63
2022/09/12 08:15:36;;;;;;;1.63;0.80;;;;;;;28.47;100.00;153205.19;5095147;28;20194;-62
2022/09/12 08:18:03;;;;;;;1.40;0.70;;;;;;;28.45;100.00;153200.03;5095029;28;20231;-62
2022/09/12 08:20:30;;;;;;;6.70;4.80;;;;;;;28.53;100.00;153219.22;5095013;28;20190;-63
2022/09/12 08:22:57;;;;;;;1.85;0.80;;;;;;;28.78;99.94;153282.00;5095306;28;20184;-63
2022/09/12 08:25:24;;;;;;;2.25;0.70;;;;;;;28.75;100.00;153274.34;5095216;28;20184;-62
2022/09/12 08:27:54;;;;;;;2.88;0.95;;;;;;;28.98;99.37;153334.50;5094749;28;20279;-62
2022/09/12 08:30:21;;;;;;;0.60;0.60;;;;;;;29.02;98.57;153343.50;5094800;28;20207;-62
2022/09/12 08:32:48;;;;;;;1.15;0.70;;;;;;;29.23;96.89;153397.28;5094767;28;20193;-63
2022/09/12 08:35:15;;;;;;;0.70;0.70;;;;;;;29.42;92.90;153446.00;5094839;28;20191;-63
2022/09/12 08:37:42;;;;;;;0.68;0.68;;;;;;;29.88;94.37;153561.34;5094632;28;20270;-63
2022/09/12 08:40:15;;;;;;;1.77;0.88;;;;;;;29.37;94.21;153431.91;5094525;28;20215;-64
2022/09/12 08:42:52;;;;;;;2.40;0.95;;;;;;;29.38;95.94;153434.47;5094565;28;20180;-63
2022/09/12 08:45:27;;;;;;;0.70;0.70;;;;;;;29.59;92.50;153488.28;5094560;28;20187;-62
2022/09/12 08:47:56;;;;;;;0.77;0.70;;;;;;;29.60;89.81;153489.56;5094665;28;20183;-63
2022/09/12 08:50:23;;;;;;;7.80;1.00;;;;;;;29.46;90.03;153454.97;5094499;28;20204;-63
2022/09/12 08:52:57;;;;;;;2.08;0.98;;;;;;;30.03;90.86;153599.81;5093831;28;20184;-62
2022/09/12 08:55:35;;;;;;;0.88;0.85;;;;;;;29.92;89.51;153572.88;5093494;28;20550;-62
2022/09/12 08:58:12;;;;;;;2.63;1.85;;;;;;;29.86;92.74;153556.19;5094822;28;20321;-63
2022/09/12 09:00:51;;;;;;;1.65;1.00;;;;;;;29.57;91.29;153483.19;5094508;28;20187;-63
2022/09/12 09:03:55;;;;;;;1.10;1.00;;;;;;;29.39;90.15;153438.31;5094188;28;20184;-63
2022/09/12 09:06:36;;;;;;;2.17;0.90;;;;;;;29.26;91.07;153403.69;5094185;28;20183;-63
2022/09/12 09:09:10;;;;;;;2.15;0.90;;;;;;;29.35;89.86;153426.78;5094168;28;20212;-62
2022/09/12 09:11:49;;;;;;;0.85;0.85;;;;;;;29.43;84.93;153447.28;5094389;28;20557;-63
2022/09/12 09:14:50;;;;;;;0.77;0.77;;;;;;;29.80;84.61;153540.78;5094176;28;20296;-62
2022/09/12 09:17:25;;;;;;;0.98;0.60;;;;;;;30.11;80.50;153620.31;5093936;28;20227;-62
2022/09/12 09:20:00;;;;;;;0.68;0.60;;;;;;;30.14;77.43;153626.69;5094062;28;20187;-63
2022/09/12 09:22:37;;;;;;;0.70;0.70;;;;;;;30.11;75.48;153620.31;5094393;28;20188;-62
2022/09/12 09:25:09;;;;;;;0.73;0.73;;;;;;;30.61;73.03;153745.94;5094303;28;20628;-67
2022/09/12 09:27:41;;;;;;;1.00;0.85;;;;;;;30.94;72.18;153830.56;5094299;28;20194;-64
2022/09/12 09:30:14;;;;;;;0.80;0.80;;;;;;;31.04;73.10;153854.97;5093787;28;20203;-65
2022/09/12 09:32:44;;;;;;;3.13;0.80;;;;;;;30.82;77.45;153799.78;5094207;28;20191;-65
2022/09/12 09:35:17;;;;;;;1.23;1.13;;;;;;;31.37;78.18;153939.63;5094199;28;20184;-64
2022/09/12 09:37:54;;;;;;;0.43;0.43;;;;;;;31.40;72.01;153947.34;5093693;28;20241;-66
2022/09/12 09:40:27;;;;;;;0.70;0.60;;;;;;;31.33;68.77;153928.06;5094271;28;20184;-65
2022/09/12 09:43:01;;;;;;;0.73;0.50;;;;;;;31.76;70.04;154038.44;5092635;28;20621;-64
2022/09/12 09:45:37;;;;;;;1.05;0.60;;;;;;;32.08;66.18;154120.56;5092845;28;20663;-64
2022/09/12 09:48:18;;;;;;;0.70;0.70;;;;;;;32.49;64.36;154223.25;5093270;28;20204;-65
2022/09/12 09:50:47;;;;;;;0.50;0.50;;;;;;;32.47;64.12;154218.09;5094124;28;20222;-65
2022/09/12 09:53:27;;;;;;;5.95;1.00;;;;;;;32.06;68.19;154114.13;5094722;28;20330;-66
2022/09/12 09:55:56;;;;;;;1.45;1.30;;;;;;;31.61;70.64;153999.97;5094106;28;20184;-65
2022/09/12 09:58:34;;;;;;;1.00;0.80;;;;;;;31.85;67.68;154061.53;5094131;28;20223;-65
2022/09/12 10:01:02;;;;;;;1.85;1.13;;;;;;;32.77;62.13;154295.16;5093694;28;20597;-65
2022/09/12 10:03:33;;;;;;;1.77;0.98;;;;;;;33.43;57.54;154462.13;5093671;28;20662;-64
2022/09/12 10:06:02;;;;;;;2.35;0.77;;;;;;;33.44;54.74;154464.69;5093963;28;20635;-65
2022/09/12 10:08:31;;;;;;;0.93;0.80;;;;;;;33.91;52.15;154584.13;5094166;28;20527;-66
2022/09/12 10:11:05;;;;;;;1.55;0.50;;;;;;;34.39;47.92;154706.22;5093815;28;20284;-65
2022/09/12 10:13:39;;;;;;;1.90;0.47;;;;;;;34.31;49.17;154685.69;5093798;28;20188;-65
2022/09/12 10:16:18;;;;;;;0.75;0.68;;;;;;;33.04;53.24;154364.50;5093166;28;20191;-62
2022/09/12 10:18:47;;;;;;;1.23;0.65;;;;;;;33.65;54.32;154517.34;5093187;28;20192;-65
2022/09/12 10:21:18;;;;;;;0.75;0.75;;;;;;;33.52;56.51;154485.25;5093749;28;20184;-66
2022/09/12 10:23:46;;;;;;;0.40;0.40;;;;;;;33.16;53.96;154394.06;5094304;28;20196;-65
2022/09/12 10:26:15;;;;;;;3.03;0.70;;;;;;;32.73;60.69;154284.88;5093212;28;20195;-65
2022/09/12 10:28:46;;;;;;;0.68;0.60;;;;;;;32.20;60.38;154150.13;5094169;28;20528;-65
2022/09/12 10:31:16;;;;;;;2.65;1.00;;;;;;;32.82;59.12;154308.00;5094111;28;20208;-66
2022/09/12 10:33:51;;;;;;;0.60;0.60;;;;;;;34.02;50.63;154611.13;5093480;28;20273;-66
2022/09/12 10:36:19;;;;;;;4.50;0.70;;;;;;;34.33;50.96;154690.84;5093298;28;20230;-66
2022/09/12 10:38:53;;;;;;;1.27;0.68;;;;;;;33.62;49.64;154510.88;5093603;28;20625;-63
2022/09/12 10:41:21;;;;;;;0.68;0.50;;;;;;;32.35;53.00;154187.31;5093900;28;20219;-65
2022/09/12 10:43:49;;;;;;;1.52;0.75;;;;;;;32.76;53.60;154292.56;5093560;28;20650;-66
2022/09/12 10:46:29;;;;;;;1.50;0.60;;;;;;;32.33;53.68;154182.19;5094377;28;20198;-65
2022/09/12 10:49:26;;;;;;;0.65;0.60;;;;;;;32.12;58.44;154130.84;5094704;28;20183;-65
2022/09/12 10:51:54;;;;;;;3.08;0.90;;;;;;;32.00;61.43;154100.00;5084295;28;20195;-66
2022/09/12 10:54:25;;;;;;;0.82;0.82;;;;;;;32.00;58.39;154098.72;5093637;28;20634;-65
2022/09/12 10:57:21;;;;;;;1.48;0.93;;;;;;;33.11;55.25;154379.88;5093275;28;20258;-66
2022/09/12 11:00:09;;;;;;;3.13;0.77;;;;;;;34.44;50.70;154719.06;5092463;28;20258;-65
2022/09/12 11:02:48;;;;;;;1.80;0.70;;;;;;;34.52;48.62;154738.34;5092633;28;20207;-65
2022/09/12 11:05:27;;;;;;;2.10;0.70;;;;;;;33.86;48.47;154572.56;5092677;28;20184;-66
2022/09/12 11:08:01;;;;;;;0.63;0.50;;;;;;;32.79;50.76;154300.31;5092526;28;20595;-66
2022/09/12 11:10:36;;;;;;;1.35;0.60;;;;;;;31.61;54.46;154001.25;5092687;28;20314;-66
2022/09/12 11:13:18;;;;;;;2.92;0.80;;;;;;;31.12;57.96;153875.50;5092379;28;20198;-65
2022/09/12 11:15:59;;;;;;;3.08;1.20;;;;;;;30.68;61.19;153765.16;5092260;28;20551;-63
2022/09/12 11:18:47;;;;;;;1.10;1.00;;;;;;;30.94;62.53;153829.28;5092715;28;20374;-62
2022/09/12 11:21:26;;;;;;;1.45;0.57;;;;;;;30.76;58.48;153784.44;5093288;28;20191;-64
2022/09/12 11:24:25;;;;;;;2.10;0.75;;;;;;;30.44;62.80;153703.66;5092062;28;20184;-64
2022/09/12 11:27:04;;;;;;;3.15;2.42;;;;;;;30.00;65.75;153592.13;5083646;28;20211;-64
2022/09/12 11:29:47;;;;;;;0.75;0.55;;;;;;;30.03;61.94;153599.81;5092265;28;20267;-65
2022/09/12 11:32:36;;;;;;;0.70;0.65;;;;;;;30.02;64.31;153597.25;5092271;28;20247;-64
2022/09/12 11:35:12;;;;;;;2.05;0.70;;;;;;;29.79;59.96;153538.28;5091952;28;20184;-65
2022/09/12 11:38:07;;;;;;;5.88;0.73;;;;;;;29.82;59.45;153547.22;5092008;28;20191;-64
2022/09/12 11:40:41;;;;;;;0.32;0.32;;;;;;;29.73;59.48;153522.88;5091990;28;20271;-65